Time,TemperatureF,DewpointF,PressureIn,WindDirection,WindDirectionDegrees,WindSpeedMPH,WindSpeedGustMPH,Humidity,HourlyPrecipIn,Conditions,Clouds,dailyrainin,SolarRadiationWatts/m^2,SoftwareType,DateUTC
2017-02-22 00:04:00,51.4,41.6,29.79,SSW,198,2.0,5.0,69,-99.99,,,-99.99,0.0,1-wire,2017-02-22 06:04:00,
2017-02-22 00:09:00,51.4,41.7,29.79,SSW,198,3.0,6.0,69,-99.99,,,-99.99,0.0,1-wire,2017-02-22 06:09:00,
2017-02-22 00:15:00,51.2,41.7,29.78,SW,231,4.0,7.0,70,-99.99,,,-99.99,0.0,1-wire,2017-02-22 06:15:00,
2017-02-22 00:20:00,51.3,41.8,29.78,SW,231,3.0,6.0,70,-99.99,,,-99.99,0.0,1-wire,2017-02-22 06:20:00,
2017-02-22 00:25:00,51.0,41.6,29.78,SW,231,2.0,5.0,70,-99.99,,,-99.99,0.3,1-wire,2017-02-22 06:25:00,
2017-02-22 00:31:00,50.8,41.7,29.78,SW,224,3.0,5.0,71,-99.99,,,-99.99,0.0,1-wire,2017-02-22 06:31:00,
2017-02-22 00:36:00,50.6,41.8,29.78,SW,224,2.0,4.0,72,-99.99,,,-99.99,0.0,1-wire,2017-02-22 06:36:00,
2017-02-22 00:41:00,50.6,41.8,29.78,SW,224,4.0,7.0,72,-99.99,,,-99.99,0.0,1-wire,2017-02-22 06:41:00,
2017-02-22 00:47:00,50.5,41.9,29.78,SW,221,4.0,6.0,72,-99.99,,,-99.99,0.4,1-wire,2017-02-22 06:47:00,
2017-02-22 00:52:00,50.0,41.4,29.78,SW,221,2.0,5.0,72,-99.99,,,-99.99,0.4,1-wire,2017-02-22 06:52:00,
2017-02-22 00:57:00,50.1,41.7,29.78,SW,221,2.0,4.0,73,-99.99,,,-99.99,0.4,1-wire,2017-02-22 06:57:00,
2017-02-22 01:02:00,50.1,41.9,29.78,SW,224,2.0,5.0,73,-99.99,,,-99.99,0.0,1-wire,2017-02-22 07:02:00,
2017-02-22 01:07:00,49.9,41.8,29.78,SW,224,2.0,5.0,74,-99.99,,,-99.99,0.4,1-wire,2017-02-22 07:07:00,
2017-02-22 01:12:00,50.0,42.0,29.78,SW,224,1.0,4.0,74,-99.99,,,-99.99,0.4,1-wire,2017-02-22 07:12:00,
2017-02-22 01:17:00,49.8,41.9,29.78,SW,222,4.0,6.0,74,-99.99,,,-99.99,0.4,1-wire,2017-02-22 07:17:00,
2017-02-22 01:22:00,49.8,42.0,29.78,SW,222,2.0,5.0,74,-99.99,,,-99.99,0.3,1-wire,2017-02-22 07:22:00,
2017-02-22 01:27:00,49.6,42.0,29.78,SW,224,2.0,6.0,75,-99.99,,,-99.99,0.0,1-wire,2017-02-22 07:27:00,
2017-02-22 01:32:00,49.6,42.1,29.77,SW,224,2.0,3.0,75,-99.99,,,-99.99,0.0,1-wire,2017-02-22 07:32:00,
2017-02-22 01:38:00,49.7,42.3,29.78,SW,224,3.0,5.0,76,-99.99,,,-99.99,0.0,1-wire,2017-02-22 07:38:00,
2017-02-22 01:43:00,49.9,42.4,29.78,SW,216,2.0,4.0,75,-99.99,,,-99.99,0.0,1-wire,2017-02-22 07:43:00,
2017-02-22 01:48:00,49.9,42.6,29.77,SW,216,1.0,2.0,76,-99.99,,,-99.99,0.0,1-wire,2017-02-22 07:48:00,
2017-02-22 01:54:00,50.0,42.9,29.77,SW,216,3.0,5.0,77,-99.99,,,-99.99,0.3,1-wire,2017-02-22 07:54:00,
2017-02-22 01:56:00,50.0,42.9,29.76,SW,216,4.0,8.0,77,-99.99,,,-99.99,0.0,1-wire,2017-02-22 07:56:00,
2017-02-22 02:02:00,50.0,42.9,29.76,SW,223,3.0,6.0,77,-99.99,,,-99.99,0.0,1-wire,2017-02-22 08:02:00,
2017-02-22 02:07:00,50.2,43.4,29.76,SW,223,3.0,6.0,77,-99.99,,,-99.99,0.0,1-wire,2017-02-22 08:07:00,
2017-02-22 02:12:00,50.1,43.6,29.76,SW,226,3.0,6.0,78,-99.99,,,-99.99,0.4,1-wire,2017-02-22 08:12:00,
2017-02-22 02:18:00,50.2,44.0,29.76,SSW,210,4.0,6.0,79,-99.99,,,-99.99,0.0,1-wire,2017-02-22 08:18:00,
2017-02-22 02:23:00,50.1,44.4,29.76,SSW,210,4.0,8.0,81,-99.99,,,-99.99,0.0,1-wire,2017-02-22 08:23:00,
2017-02-22 02:29:00,50.2,44.8,29.76,SSW,210,4.0,8.0,81,-99.99,,,-99.99,0.0,1-wire,2017-02-22 08:29:00,
2017-02-22 02:34:00,50.3,45.2,29.76,SSW,210,5.0,8.0,82,-99.99,,,-99.99,0.4,1-wire,2017-02-22 08:34:00,
2017-02-22 02:39:00,50.2,45.2,29.75,SSW,210,2.0,6.0,83,-99.99,,,-99.99,0.0,1-wire,2017-02-22 08:39:00,
2017-02-22 02:45:00,50.2,45.6,29.75,SW,214,5.0,6.0,84,-99.99,,,-99.99,0.0,1-wire,2017-02-22 08:45:00,
2017-02-22 02:50:00,50.1,45.4,29.75,SW,214,3.0,6.0,84,-99.99,,,-99.99,0.0,1-wire,2017-02-22 08:50:00,
2017-02-22 02:55:00,50.4,45.8,29.75,SW,214,1.0,4.0,84,-99.99,,,-99.99,0.0,1-wire,2017-02-22 08:55:00,
2017-02-22 03:00:00,50.4,46.1,29.74,SSW,209,3.0,6.0,85,-99.99,,,-99.99,0.0,1-wire,2017-02-22 09:00:00,
2017-02-22 03:05:00,50.4,46.3,29.74,SSW,209,3.0,4.0,86,-99.99,,,-99.99,0.0,1-wire,2017-02-22 09:05:00,
2017-02-22 03:10:00,50.4,46.3,29.74,SSW,209,3.0,6.0,86,-99.99,,,-99.99,0.4,1-wire,2017-02-22 09:10:00,
2017-02-22 03:16:00,50.0,46.1,29.74,SW,226,1.0,4.0,86,-99.99,,,-99.99,0.0,1-wire,2017-02-22 09:16:00,
2017-02-22 03:21:00,49.8,46.4,29.74,SW,226,1.0,2.0,88,-99.99,,,-99.99,0.0,1-wire,2017-02-22 09:21:00,
2017-02-22 03:26:00,49.6,46.5,29.74,SW,226,2.0,5.0,89,-99.99,,,-99.99,0.0,1-wire,2017-02-22 09:26:00,
2017-02-22 03:32:00,50.5,47.9,29.74,SW,227,1.0,5.0,91,-99.99,,,-99.99,0.0,1-wire,2017-02-22 09:32:00,
2017-02-22 03:37:00,50.2,47.1,29.74,SW,227,0.0,2.0,89,-99.99,,,-99.99,0.0,1-wire,2017-02-22 09:37:00,
2017-02-22 03:42:00,50.1,47.1,29.74,SW,227,1.0,4.0,89,-99.99,,,-99.99,0.0,1-wire,2017-02-22 09:42:00,
2017-02-22 03:48:00,49.6,47.0,29.74,SW,225,1.0,5.0,91,-99.99,,,-99.99,0.3,1-wire,2017-02-22 09:48:00,
2017-02-22 03:53:00,50.0,47.5,29.74,SW,225,0.0,2.0,91,-99.99,,,-99.99,0.0,1-wire,2017-02-22 09:53:00,
2017-02-22 03:59:00,50.0,47.6,29.74,SW,225,3.0,5.0,91,-99.99,,,-99.99,0.0,1-wire,2017-02-22 09:59:00,
2017-02-22 04:04:00,49.9,47.6,29.73,SW,225,1.0,3.0,92,-99.99,,,-99.99,0.0,1-wire,2017-02-22 10:04:00,
2017-02-22 04:09:00,49.9,47.8,29.73,SW,225,1.0,5.0,92,-99.99,,,-99.99,0.4,1-wire,2017-02-22 10:09:00,
2017-02-22 04:15:00,50.0,48.2,29.73,SSW,205,1.0,2.0,93,-99.99,,,-99.99,0.0,1-wire,2017-02-22 10:15:00,
2017-02-22 04:20:00,49.9,47.9,29.73,SSW,205,2.0,5.0,93,-99.99,,,-99.99,0.0,1-wire,2017-02-22 10:20:00,
2017-02-22 04:25:00,50.1,48.4,29.73,SSW,205,3.0,6.0,94,-99.99,,,-99.99,0.4,1-wire,2017-02-22 10:25:00,
2017-02-22 04:31:00,50.2,48.5,29.73,SSW,206,1.0,2.0,94,-99.99,,,-99.99,0.0,1-wire,2017-02-22 10:31:00,
2017-02-22 04:36:00,49.9,48.4,29.73,SSW,206,1.0,4.0,94,-99.99,,,-99.99,0.0,1-wire,2017-02-22 10:36:00,
2017-02-22 04:41:00,49.8,48.4,29.73,SSW,206,2.0,6.0,95,-99.99,,,-99.99,0.0,1-wire,2017-02-22 10:41:00,
2017-02-22 04:46:00,49.6,48.4,29.73,SSW,199,0.0,2.0,96,-99.99,,,-99.99,0.0,1-wire,2017-02-22 10:46:00,
2017-02-22 04:52:00,49.7,48.6,29.73,SSW,199,1.0,3.0,96,-99.99,,,-99.99,0.0,1-wire,2017-02-22 10:52:00,
2017-02-22 04:57:00,49.8,48.9,29.73,SSW,199,1.0,4.0,96,-99.99,,,-99.99,0.0,1-wire,2017-02-22 10:57:00,
2017-02-22 05:02:00,49.9,49.0,29.74,SSW,199,2.0,6.0,97,-99.99,,,-99.99,0.4,1-wire,2017-02-22 11:02:00,
2017-02-22 05:07:00,49.9,49.1,29.74,SSW,199,5.0,9.0,97,-99.99,,,-99.99,0.0,1-wire,2017-02-22 11:07:00,
2017-02-22 05:12:00,50.0,49.2,29.74,SSW,204,3.0,8.0,97,-99.99,,,-99.99,0.0,1-wire,2017-02-22 11:12:00,
2017-02-22 05:17:00,50.0,49.1,29.74,SSW,204,3.0,5.0,97,-99.99,,,-99.99,0.0,1-wire,2017-02-22 11:17:00,
2017-02-22 05:22:00,49.8,49.0,29.74,SSW,204,3.0,6.0,97,-99.99,,,-99.99,0.0,1-wire,2017-02-22 11:22:00,
2017-02-22 05:27:00,49.6,48.9,29.73,SSW,203,4.0,8.0,97,-99.99,,,-99.99,0.0,1-wire,2017-02-22 11:27:00,
2017-02-22 05:32:00,49.6,48.8,29.73,SSW,203,3.0,6.0,97,-99.99,,,-99.99,0.0,1-wire,2017-02-22 11:32:00,
2017-02-22 05:37:00,49.5,48.7,29.72,SSW,203,3.0,6.0,97,-99.99,,,-99.99,0.4,1-wire,2017-02-22 11:37:00,
2017-02-22 05:42:00,49.2,48.5,29.72,SSW,203,1.0,5.0,97,-99.99,,,-99.99,0.0,1-wire,2017-02-22 11:42:00,
2017-02-22 05:48:00,49.2,48.4,29.72,SSW,203,0.0,0.0,97,-99.99,,,-99.99,0.0,1-wire,2017-02-22 11:48:00,
2017-02-22 05:53:00,49.0,48.2,29.72,SSW,203,0.0,0.0,97,-99.99,,,-99.99,0.4,1-wire,2017-02-22 11:53:00,
2017-02-22 05:58:00,48.9,48.1,29.72,SSW,201,2.0,5.0,97,-99.99,,,-99.99,0.0,1-wire,2017-02-22 11:58:00,
2017-02-22 06:03:00,48.8,48.1,29.72,SSW,201,1.0,4.0,97,-99.99,,,-99.99,0.0,1-wire,2017-02-22 12:03:00,
2017-02-22 06:09:00,48.7,48.0,29.72,SSW,201,0.0,2.0,97,-99.99,,,-99.99,0.3,1-wire,2017-02-22 12:09:00,
2017-02-22 06:14:00,48.8,48.1,29.72,SSW,192,0.0,2.0,97,-99.99,,,-99.99,0.0,1-wire,2017-02-22 12:14:00,
2017-02-22 06:19:00,48.6,47.8,29.72,SSW,192,0.0,0.0,97,-99.99,,,-99.99,0.0,1-wire,2017-02-22 12:19:00,
2017-02-22 06:25:00,48.6,47.8,29.72,SSW,192,0.0,0.0,97,-99.99,,,-99.99,0.0,1-wire,2017-02-22 12:25:00,
2017-02-22 06:30:00,48.8,48.0,29.72,SSW,198,1.0,5.0,97,-99.99,,,-99.99,0.9,1-wire,2017-02-22 12:30:00,
2017-02-22 06:35:00,48.5,47.8,29.72,SSW,198,1.0,3.0,97,-99.99,,,-99.99,1.8,1-wire,2017-02-22 12:35:00,
2017-02-22 06:41:00,48.7,47.8,29.72,SSW,198,1.0,3.0,97,-99.99,,,-99.99,3.7,1-wire,2017-02-22 12:41:00,
2017-02-22 06:46:00,48.5,47.7,29.72,SSW,197,0.0,2.0,97,-99.99,,,-99.99,3.7,1-wire,2017-02-22 12:46:00,
2017-02-22 06:52:00,48.3,47.5,29.71,SSW,197,1.0,4.0,97,-99.99,,,-99.99,5.6,1-wire,2017-02-22 12:52:00,
2017-02-22 06:57:00,48.6,47.7,29.71,SSW,197,0.0,2.0,97,-99.99,,,-99.99,7.5,1-wire,2017-02-22 12:57:00,
2017-02-22 07:02:00,48.3,47.4,29.71,SSW,192,0.0,1.0,97,-99.99,,,-99.99,8.1,1-wire,2017-02-22 13:02:00,
2017-02-22 07:08:00,48.6,47.8,29.71,SSW,192,3.0,6.0,97,-99.99,,,-99.99,11.3,1-wire,2017-02-22 13:08:00,
2017-02-22 07:14:00,48.8,48.0,29.71,SSW,198,2.0,4.0,97,-99.99,,,-99.99,12.7,1-wire,2017-02-22 13:14:00,
2017-02-22 07:19:00,48.8,48.0,29.71,SSW,198,2.0,5.0,97,-99.99,,,-99.99,14.6,1-wire,2017-02-22 13:19:00,
2017-02-22 07:24:00,48.9,48.0,29.71,SSW,198,0.0,2.0,97,-99.99,,,-99.99,15.0,1-wire,2017-02-22 13:24:00,
2017-02-22 07:29:00,49.2,48.4,29.71,SSW,202,4.0,10.0,97,-99.99,,,-99.99,17.7,1-wire,2017-02-22 13:29:00,
2017-02-22 07:34:00,49.5,48.6,29.71,SSW,202,2.0,6.0,97,-99.99,,,-99.99,18.8,1-wire,2017-02-22 13:34:00,
2017-02-22 07:39:00,49.6,48.8,29.71,SSW,202,2.0,6.0,97,-99.99,,,-99.99,21.3,1-wire,2017-02-22 13:39:00,
2017-02-22 07:44:00,49.5,48.6,29.71,SSW,197,3.0,6.0,97,-99.99,,,-99.99,24.5,1-wire,2017-02-22 13:44:00,
2017-02-22 07:49:00,49.5,48.8,29.70,SSW,197,1.0,4.0,97,-99.99,,,-99.99,26.4,1-wire,2017-02-22 13:49:00,
2017-02-22 07:54:00,49.7,48.9,29.70,SSW,197,3.0,9.0,97,-99.99,,,-99.99,41.1,1-wire,2017-02-22 13:54:00,
2017-02-22 07:59:00,49.8,49.1,29.70,SSW,200,5.0,9.0,97,-99.99,,,-99.99,48.2,1-wire,2017-02-22 13:59:00,
2017-02-22 08:04:00,50.0,49.4,29.69,SSW,200,5.0,6.0,98,-99.99,,,-99.99,78.8,1-wire,2017-02-22 14:04:00,
2017-02-22 08:09:00,50.2,49.4,29.69,SSW,200,3.0,6.0,97,-99.99,,,-99.99,84.8,1-wire,2017-02-22 14:09:00,
2017-02-22 08:14:00,50.4,49.6,29.69,SSW,198,2.0,4.0,97,-99.99,,,-99.99,101.4,1-wire,2017-02-22 14:14:00,
2017-02-22 08:20:00,50.9,50.1,29.69,SSW,198,7.0,14.0,97,-99.99,,,-99.99,155.3,1-wire,2017-02-22 14:20:00,
2017-02-22 08:26:00,51.4,50.5,29.68,SSW,198,4.0,8.0,97,-99.99,,,-99.99,116.0,1-wire,2017-02-22 14:26:00,
2017-02-22 08:31:00,51.4,50.4,29.68,SSW,199,2.0,5.0,97,-99.99,,,-99.99,94.6,1-wire,2017-02-22 14:31:00,
2017-02-22 08:36:00,51.8,50.7,29.68,SSW,199,5.0,11.0,96,-99.99,,,-99.99,90.1,1-wire,2017-02-22 14:36:00,
2017-02-22 08:42:00,51.6,50.4,29.68,SSW,199,4.0,6.0,96,-99.99,,,-99.99,110.5,1-wire,2017-02-22 14:42:00,
2017-02-22 08:47:00,52.1,50.8,29.68,SSW,196,5.0,13.0,95,-99.99,,,-99.99,95.6,1-wire,2017-02-22 14:47:00,
2017-02-22 08:52:00,52.2,50.9,29.68,SSW,196,3.0,8.0,95,-99.99,,,-99.99,123.4,1-wire,2017-02-22 14:52:00,
2017-02-22 08:57:00,52.2,50.8,29.68,SSW,200,8.0,11.0,95,-99.99,,,-99.99,155.4,1-wire,2017-02-22 14:57:00,
2017-02-22 09:03:00,52.4,51.0,29.68,SSW,201,6.0,8.0,95,-99.99,,,-99.99,233.9,1-wire,2017-02-22 15:03:00,
2017-02-22 09:08:00,53.0,51.3,29.68,SSW,201,4.0,8.0,94,-99.99,,,-99.99,258.8,1-wire,2017-02-22 15:08:00,
2017-02-22 09:14:00,53.3,51.1,29.69,SSW,206,4.0,8.0,92,-99.99,,,-99.99,266.3,1-wire,2017-02-22 15:14:00,
2017-02-22 09:20:00,53.4,50.8,29.68,SSW,206,2.0,6.0,91,-99.99,,,-99.99,302.2,1-wire,2017-02-22 15:20:00,
2017-02-22 09:25:00,54.0,51.1,29.68,SSW,206,1.0,4.0,90,-99.99,,,-99.99,322.6,1-wire,2017-02-22 15:25:00,
2017-02-22 09:30:00,54.3,50.9,29.68,SSW,201,4.0,8.0,88,-99.99,,,-99.99,320.7,1-wire,2017-02-22 15:30:00,
2017-02-22 09:36:00,54.8,50.8,29.67,SSW,201,4.0,8.0,86,-99.99,,,-99.99,337.7,1-wire,2017-02-22 15:36:00,
2017-02-22 09:41:00,55.5,50.6,29.67,SSW,201,5.0,7.0,84,-99.99,,,-99.99,346.1,1-wire,2017-02-22 15:41:00,
2017-02-22 09:46:00,56.0,50.4,29.67,SSW,195,1.0,3.0,81,-99.99,,,-99.99,354.4,1-wire,2017-02-22 15:46:00,
2017-02-22 09:52:00,57.2,50.4,29.67,SSW,195,3.0,6.0,78,-99.99,,,-99.99,362.6,1-wire,2017-02-22 15:52:00,
2017-02-22 09:57:00,57.3,50.0,29.67,SSW,195,2.0,6.0,77,-99.99,,,-99.99,368.6,1-wire,2017-02-22 15:57:00,
2017-02-22 10:03:00,58.5,50.2,29.67,SSW,205,3.0,6.0,74,-99.99,,,-99.99,375.4,1-wire,2017-02-22 16:03:00,
2017-02-22 10:08:00,58.7,49.5,29.66,SSW,205,3.0,8.0,72,-99.99,,,-99.99,380.3,1-wire,2017-02-22 16:08:00,
2017-02-22 10:14:00,59.4,50.1,29.65,SSW,209,4.0,8.0,71,-99.99,,,-99.99,387.0,1-wire,2017-02-22 16:14:00,
2017-02-22 10:19:00,59.8,49.6,29.65,SSW,209,7.0,12.0,69,-99.99,,,-99.99,392.0,1-wire,2017-02-22 16:19:00,
2017-02-22 10:25:00,60.6,49.8,29.65,SSW,209,5.0,12.0,67,-99.99,,,-99.99,398.4,1-wire,2017-02-22 16:25:00,
2017-02-22 10:30:00,60.6,49.7,29.65,SSW,206,3.0,6.0,67,-99.99,,,-99.99,402.4,1-wire,2017-02-22 16:30:00,
2017-02-22 10:36:00,61.0,49.5,29.65,SSW,206,4.0,8.0,66,-99.99,,,-99.99,407.1,1-wire,2017-02-22 16:36:00,
2017-02-22 10:41:00,61.7,49.7,29.65,SSW,206,8.0,15.0,65,-99.99,,,-99.99,411.0,1-wire,2017-02-22 16:41:00,
2017-02-22 10:47:00,61.7,49.1,29.65,SSW,202,2.0,5.0,63,-99.99,,,-99.99,416.1,1-wire,2017-02-22 16:47:00,
2017-02-22 10:52:00,62.1,49.0,29.65,SSW,202,9.0,14.0,62,-99.99,,,-99.99,418.8,1-wire,2017-02-22 16:52:00,
2017-02-22 10:57:00,63.2,49.9,29.64,SSW,202,3.0,12.0,62,-99.99,,,-99.99,421.8,1-wire,2017-02-22 16:57:00,
2017-02-22 11:02:00,63.1,49.3,29.64,SSW,211,8.0,14.0,61,-99.99,,,-99.99,425.6,1-wire,2017-02-22 17:02:00,
2017-02-22 11:07:00,63.3,49.4,29.64,SSW,211,6.0,9.0,60,-99.99,,,-99.99,430.5,1-wire,2017-02-22 17:07:00,
2017-02-22 11:12:00,63.7,49.5,29.64,SSW,204,5.0,9.0,60,-99.99,,,-99.99,436.6,1-wire,2017-02-22 17:12:00,
2017-02-22 11:18:00,64.2,49.8,29.63,SSW,204,3.0,6.0,59,-99.99,,,-99.99,445.2,1-wire,2017-02-22 17:18:00,
2017-02-22 11:23:00,64.8,49.0,29.63,SSW,204,9.0,16.0,56,-99.99,,,-99.99,444.4,1-wire,2017-02-22 17:23:00,
2017-02-22 11:28:00,65.8,49.2,29.63,SW,214,4.0,9.0,55,-99.99,,,-99.99,444.2,1-wire,2017-02-22 17:28:00,
2017-02-22 11:33:00,66.1,48.4,29.62,SW,214,8.0,19.0,53,-99.99,,,-99.99,447.1,1-wire,2017-02-22 17:33:00,
2017-02-22 11:38:00,66.7,49.0,29.62,SW,214,4.0,7.0,53,-99.99,,,-99.99,449.0,1-wire,2017-02-22 17:38:00,
2017-02-22 11:43:00,66.8,48.9,29.62,SW,214,10.0,16.0,53,-99.99,,,-99.99,450.0,1-wire,2017-02-22 17:43:00,
2017-02-22 11:49:00,66.8,48.4,29.61,SW,214,8.0,17.0,52,-99.99,,,-99.99,453.5,1-wire,2017-02-22 17:49:00,
2017-02-22 11:54:00,67.3,48.1,29.61,SW,214,9.0,17.0,50,-99.99,,,-99.99,452.8,1-wire,2017-02-22 17:54:00,
2017-02-22 12:00:00,67.2,47.0,29.61,SSW,209,6.0,14.0,48,-99.99,,,-99.99,459.5,1-wire,2017-02-22 18:00:00,
2017-02-22 12:05:00,67.9,47.0,29.61,SSW,209,4.0,8.0,47,-99.99,,,-99.99,411.6,1-wire,2017-02-22 18:05:00,
2017-02-22 12:10:00,68.4,47.9,29.61,SSW,209,7.0,13.0,48,-99.99,,,-99.99,459.1,1-wire,2017-02-22 18:10:00,
2017-02-22 12:15:00,68.6,47.9,29.61,SW,215,8.0,15.0,48,-99.99,,,-99.99,442.2,1-wire,2017-02-22 18:15:00,
2017-02-22 12:21:00,68.2,47.7,29.60,SW,215,5.0,9.0,48,-99.99,,,-99.99,411.9,1-wire,2017-02-22 18:21:00,
2017-02-22 12:27:00,68.3,47.8,29.60,SW,215,4.0,9.0,48,-99.99,,,-99.99,383.0,1-wire,2017-02-22 18:27:00,
2017-02-22 12:32:00,68.3,47.4,29.59,SW,215,8.0,13.0,47,-99.99,,,-99.99,471.6,1-wire,2017-02-22 18:32:00,
2017-02-22 12:37:00,68.9,48.3,29.59,SW,215,4.0,9.0,48,-99.99,,,-99.99,406.0,1-wire,2017-02-22 18:37:00,
2017-02-22 12:42:00,70.0,48.4,29.59,SW,214,5.0,10.0,46,-99.99,,,-99.99,436.1,1-wire,2017-02-22 18:42:00,
2017-02-22 12:47:00,69.9,48.4,29.59,SW,214,4.0,8.0,46,-99.99,,,-99.99,461.4,1-wire,2017-02-22 18:47:00,
2017-02-22 12:52:00,69.8,49.0,29.59,SW,214,7.0,12.0,48,-99.99,,,-99.99,455.8,1-wire,2017-02-22 18:52:00,
2017-02-22 12:57:00,69.1,48.7,29.59,SW,214,6.0,13.0,48,-99.99,,,-99.99,339.6,1-wire,2017-02-22 18:57:00,
2017-02-22 13:08:00,68.9,49.1,29.58,SW,215,5.0,12.0,49,-99.99,,,-99.99,182.2,1-wire,2017-02-22 19:08:00,
2017-02-22 13:14:00,68.6,49.3,29.58,SSW,203,7.0,11.0,50,-99.99,,,-99.99,260.7,1-wire,2017-02-22 19:14:00,
2017-02-22 13:19:00,69.2,48.7,29.57,SSW,203,3.0,6.0,48,-99.99,,,-99.99,257.5,1-wire,2017-02-22 19:19:00,
2017-02-22 13:25:00,70.1,49.3,29.56,SSW,203,7.0,10.0,48,-99.99,,,-99.99,307.1,1-wire,2017-02-22 19:25:00,
2017-02-22 13:30:00,70.5,49.4,29.56,SSW,203,5.0,15.0,47,-99.99,,,-99.99,354.9,1-wire,2017-02-22 19:30:00,
2017-02-22 13:36:00,70.5,49.9,29.56,SSW,203,3.0,8.0,48,-99.99,,,-99.99,329.0,1-wire,2017-02-22 19:36:00,
2017-02-22 13:41:00,70.6,50.0,29.56,SSW,203,9.0,14.0,48,-99.99,,,-99.99,276.6,1-wire,2017-02-22 19:41:00,
2017-02-22 13:46:00,70.4,49.9,29.56,SSW,196,5.0,10.0,48,-99.99,,,-99.99,220.3,1-wire,2017-02-22 19:46:00,
2017-02-22 13:51:00,70.4,50.3,29.56,SSW,196,1.0,5.0,49,-99.99,,,-99.99,128.2,1-wire,2017-02-22 19:51:00,
2017-02-22 13:56:00,70.2,50.6,29.56,SSW,196,1.0,4.0,50,-99.99,,,-99.99,244.5,1-wire,2017-02-22 19:56:00,
2017-02-22 14:01:00,70.0,50.9,29.56,SSW,206,3.0,6.0,51,-99.99,,,-99.99,142.2,1-wire,2017-02-22 20:01:00,
2017-02-22 14:06:00,68.8,50.1,29.56,SSW,206,4.0,9.0,51,-99.99,,,-99.99,262.5,1-wire,2017-02-22 20:06:00,
2017-02-22 14:12:00,68.8,49.5,29.55,SSW,209,2.0,9.0,50,-99.99,,,-99.99,226.4,1-wire,2017-02-22 20:12:00,
2017-02-22 14:17:00,69.0,49.5,29.56,SSW,209,6.0,11.0,50,-99.99,,,-99.99,144.5,1-wire,2017-02-22 20:17:00,
2017-02-22 14:22:00,68.8,49.3,29.56,SSW,209,6.0,9.0,50,-99.99,,,-99.99,158.5,1-wire,2017-02-22 20:22:00,
2017-02-22 14:27:00,69.2,49.2,29.56,SSW,205,7.0,13.0,49,-99.99,,,-99.99,135.0,1-wire,2017-02-22 20:27:00,
2017-02-22 14:32:00,69.4,49.5,29.55,SSW,205,5.0,9.0,49,-99.99,,,-99.99,87.7,1-wire,2017-02-22 20:32:00,
2017-02-22 14:38:00,69.6,49.3,29.55,SSW,205,7.0,11.0,49,-99.99,,,-99.99,171.7,1-wire,2017-02-22 20:38:00,
2017-02-22 14:43:00,70.1,50.1,29.54,SSW,202,4.0,10.0,49,-99.99,,,-99.99,96.6,1-wire,2017-02-22 20:43:00,
2017-02-22 14:49:00,68.9,49.1,29.54,SSW,202,1.0,4.0,49,-99.99,,,-99.99,153.1,1-wire,2017-02-22 20:49:00,
2017-02-22 14:54:00,69.2,49.0,29.54,SSW,202,7.0,12.0,49,-99.99,,,-99.99,99.2,1-wire,2017-02-22 20:54:00,
2017-02-22 14:59:00,69.2,48.1,29.54,SSW,204,6.0,11.0,47,-99.99,,,-99.99,47.1,1-wire,2017-02-22 20:59:00,
2017-02-22 15:05:00,69.4,48.7,29.53,SSW,204,4.0,8.0,48,-99.99,,,-99.99,45.2,1-wire,2017-02-22 21:05:00,
2017-02-22 15:10:00,70.0,49.3,29.53,SSW,204,3.0,6.0,48,-99.99,,,-99.99,226.0,1-wire,2017-02-22 21:10:00,
2017-02-22 15:15:00,69.6,49.7,29.52,SSW,196,7.0,11.0,49,-99.99,,,-99.99,220.7,1-wire,2017-02-22 21:15:00,
2017-02-22 15:21:00,69.7,49.7,29.52,SSW,196,1.0,4.0,49,-99.99,,,-99.99,251.5,1-wire,2017-02-22 21:21:00,
2017-02-22 15:27:00,69.6,49.5,29.52,SSW,196,4.0,9.0,49,-99.99,,,-99.99,220.3,1-wire,2017-02-22 21:27:00,
2017-02-22 15:32:00,69.6,49.2,29.52,SSW,195,4.0,11.0,48,-99.99,,,-99.99,109.4,1-wire,2017-02-22 21:32:00,
2017-02-22 15:38:00,69.9,49.7,29.52,SSW,195,2.0,6.0,49,-99.99,,,-99.99,256.9,1-wire,2017-02-22 21:38:00,
2017-02-22 15:43:00,70.1,50.1,29.51,SSW,198,5.0,9.0,49,-99.99,,,-99.99,208.2,1-wire,2017-02-22 21:43:00,
2017-02-22 15:48:00,69.2,49.9,29.51,SSW,198,3.0,9.0,50,-99.99,,,-99.99,178.2,1-wire,2017-02-22 21:48:00,
2017-02-22 15:54:00,69.6,50.4,29.51,SSW,198,5.0,9.0,51,-99.99,,,-99.99,115.0,1-wire,2017-02-22 21:54:00,
2017-02-22 15:59:00,69.7,50.9,29.51,SSW,194,1.0,4.0,51,-99.99,,,-99.99,150.9,1-wire,2017-02-22 21:59:00,
2017-02-22 16:04:00,68.9,51.1,29.51,SSW,194,6.0,11.0,53,-99.99,,,-99.99,169.4,1-wire,2017-02-22 22:04:00,
2017-02-22 16:09:00,68.9,51.5,29.50,SSW,194,2.0,4.0,54,-99.99,,,-99.99,154.3,1-wire,2017-02-22 22:09:00,
2017-02-22 16:14:00,68.8,51.2,29.50,SSW,197,2.0,5.0,54,-99.99,,,-99.99,190.9,1-wire,2017-02-22 22:14:00,
2017-02-22 16:19:00,68.8,51.2,29.50,SSW,197,3.0,8.0,53,-99.99,,,-99.99,141.5,1-wire,2017-02-22 22:19:00,
2017-02-22 16:24:00,68.3,51.0,29.50,SSW,197,3.0,6.0,54,-99.99,,,-99.99,176.2,1-wire,2017-02-22 22:24:00,
2017-02-22 16:30:00,68.1,51.1,29.50,SSW,194,3.0,9.0,55,-99.99,,,-99.99,81.1,1-wire,2017-02-22 22:30:00,
2017-02-22 16:35:00,67.9,50.9,29.50,SSW,194,4.0,8.0,55,-99.99,,,-99.99,57.7,1-wire,2017-02-22 22:35:00,
2017-02-22 16:40:00,67.9,51.1,29.50,SSW,194,8.0,11.0,55,-99.99,,,-99.99,54.3,1-wire,2017-02-22 22:40:00,
2017-02-22 16:45:00,67.7,51.2,29.52,SSW,198,4.0,9.0,55,-99.99,,,-99.99,40.5,1-wire,2017-02-22 22:45:00,
2017-02-22 16:50:00,67.5,51.3,29.52,SSW,198,3.0,5.0,56,-99.99,,,-99.99,71.3,1-wire,2017-02-22 22:50:00,
2017-02-22 16:55:00,67.5,51.4,29.52,SSW,198,2.0,4.0,56,-99.99,,,-99.99,39.6,1-wire,2017-02-22 22:55:00,
2017-02-22 17:01:00,67.2,51.5,29.53,SSW,204,3.0,6.0,57,-99.99,,,-99.99,33.3,1-wire,2017-02-22 23:01:00,
2017-02-22 17:06:00,66.9,51.5,29.53,SSW,204,7.0,9.0,58,-99.99,,,-99.99,18.0,1-wire,2017-02-22 23:06:00,
2017-02-22 17:12:00,66.5,51.5,29.53,SSW,204,3.0,6.0,58,-99.99,,,-99.99,15.0,1-wire,2017-02-22 23:12:00,
2017-02-22 17:17:00,66.5,51.6,29.53,SW,222,4.0,7.0,59,-99.99,,,-99.99,11.3,1-wire,2017-02-22 23:17:00,